Terminal Aerodrome Forecast
Issued by NWS

Home | Current Version | Previous Version | Graphics & Text | Print | Product List | Glossary On
Versions: 1 2 3 4 5 6 7 8 9 10 11 12 13 14 15 16 17 18 19 20 21 22 23
000
FTUS43 KBIS 251650 AAA
TAFMOT
TAF AMD
KMOT 251650Z 2517/2612 11005KT P6SM BKN012 OVC050
     FM252000 05004KT P6SM BKN020 OVC035
     FM260800 15004KT P6SM VCSH SCT025 OVC030=

USA.gov is the U.S. government's official web portal to all federal, state and local government web resources and services.